Time;durP1;ratioP1;P1;durP2;ratioP2;P2;SDS_P1;SDS_P2;PMS_P1;PMS_P2;Temp;Humidity;BMP_temperature;BMP_pressure;BME280_temperature;BME280_humidity;BME280_pressure;Samples;Min_cycle;Max_cycle;Signal;HPM_P1;HPM_P2
2023/01/11 00:00:11;;;;;;;12.20;7.30;;;7.40;42.10;;;;;;5033390;28;20174;-51
2023/01/11 00:02:36;;;;;;;9.43;6.03;;;7.40;42.60;;;;;;5033136;28;20204;-52
2023/01/11 00:05:03;;;;;;;11.90;6.17;;;7.40;42.60;;;;;;5033042;28;20174;-51
2023/01/11 00:07:29;;;;;;;10.48;6.57;;;7.50;42.60;;;;;;5033317;28;20190;-52
2023/01/11 00:09:55;;;;;;;10.93;6.63;;;7.50;42.50;;;;;;5033171;28;20174;-52
2023/01/11 00:12:21;;;;;;;8.43;6.37;;;7.50;42.60;;;;;;5033105;28;20401;-51
2023/01/11 00:14:47;;;;;;;11.60;6.40;;;7.60;42.50;;;;;;5032933;28;20459;-52
2023/01/11 00:17:12;;;;;;;7.90;5.03;;;7.60;42.50;;;;;;5033216;28;20228;-51
2023/01/11 00:19:38;;;;;;;19.90;6.27;;;7.70;42.60;;;;;;5032928;28;20170;-52
2023/01/11 00:22:04;;;;;;;5.83;4.40;;;7.70;42.50;;;;;;5032862;28;20247;-52
2023/01/11 00:24:29;;;;;;;6.33;4.80;;;7.80;42.60;;;;;;5032694;28;20173;-52
2023/01/11 00:26:55;;;;;;;13.67;5.10;;;7.80;42.50;;;;;;5032475;28;20221;-51
2023/01/11 00:29:21;;;;;;;6.80;5.37;;;7.80;42.30;;;;;;5032813;28;20548;-52
2023/01/11 00:31:47;;;;;;;5.40;4.60;;;7.80;42.20;;;;;;5032814;28;20212;-51
2023/01/11 00:34:12;;;;;;;6.17;4.77;;;7.80;42.20;;;;;;5032620;28;20651;-52
2023/01/11 00:36:38;;;;;;;9.70;4.40;;;7.90;42.30;;;;;;5032557;28;20239;-51
2023/01/11 00:39:04;;;;;;;6.90;5.13;;;7.80;42.20;;;;;;5032903;28;20192;-52
2023/01/11 00:49:42;;;;;;;8.07;5.22;;;7.80;42.20;;;;;;5032524;28;20231;-52
2023/01/11 00:52:09;;;;;;;10.32;5.15;;;7.90;42.30;;;;;;5032424;28;20178;-51
2023/01/11 00:54:36;;;;;;;7.50;5.15;;;7.80;42.20;;;;;;5032180;28;20177;-52
2023/01/11 00:57:05;;;;;;;12.18;5.15;;;7.90;42.30;;;;;;5032427;28;20201;-51
2023/01/11 00:59:30;;;;;;;10.00;4.70;;;7.90;42.30;;;;;;5032354;28;20177;-52
2023/01/11 01:01:56;;;;;;;5.73;3.97;;;7.90;42.20;;;;;;5032188;28;20190;-52
2023/01/11 01:04:22;;;;;;;5.53;3.47;;;7.90;42.10;;;;;;5032069;28;20166;-52
2023/01/11 01:06:48;;;;;;;6.70;4.27;;;7.90;42.10;;;;;;5032229;28;20272;-51
2023/01/11 01:09:14;;;;;;;13.10;5.00;;;8.00;42.00;;;;;;5032460;28;20256;-51
2023/01/11 01:11:40;;;;;;;8.18;3.42;;;8.00;42.00;;;;;;5032033;28;20210;-52
2023/01/11 01:16:50;;;;;;;14.30;4.30;;;8.00;41.90;;;;;;5032335;28;20327;-51
2023/01/11 01:19:16;;;;;;;9.00;3.90;;;8.00;42.00;;;;;;5031992;28;20184;-52
2023/01/11 01:21:42;;;;;;;6.13;3.63;;;8.00;42.00;;;;;;5031988;28;20169;-51
2023/01/11 01:24:08;;;;;;;5.70;3.23;;;8.00;41.90;;;;;;5031979;28;20582;-51
2023/01/11 01:26:34;;;;;;;6.73;3.37;;;8.20;41.90;;;;;;5031623;28;20944;-51
2023/01/11 01:28:59;;;;;;;8.40;4.00;;;8.20;41.60;;;;;;5031991;28;20170;-51
2023/01/11 01:31:25;;;;;;;5.17;3.20;;;8.20;41.50;;;;;;5032001;28;20227;-52
2023/01/11 01:33:51;;;;;;;14.83;3.80;;;8.20;41.50;;;;;;5031930;28;20179;-51
2023/01/11 01:36:17;;;;;;;9.40;3.93;;;8.20;41.20;;;;;;5031603;28;20174;-52
2023/01/11 01:38:42;;;;;;;7.27;3.30;;;8.30;41.20;;;;;;5034095;28;20174;-51
2023/01/11 01:41:11;;;;;;;6.97;3.43;;;8.30;41.30;;;;;;5035938;28;20196;-52
2023/01/11 01:44:05;;;;;;;8.32;4.32;;;8.40;41.20;;;;;;5035859;28;20196;-52
2023/01/11 01:46:33;;;;;;;5.63;3.70;;;8.40;40.90;;;;;;5035913;28;20557;-52
2023/01/11 01:49:08;;;;;;;7.18;3.33;;;8.50;40.80;;;;;;5035967;28;20224;-52
2023/01/11 01:51:53;;;;;;;5.15;3.53;;;8.40;40.70;;;;;;5035793;28;20174;-51
2023/01/11 01:54:28;;;;;;;6.68;3.70;;;8.40;40.70;;;;;;5035596;28;20175;-52
2023/01/11 01:57:01;;;;;;;6.22;3.47;;;8.50;40.70;;;;;;5035916;28;20201;-52
2023/01/11 01:59:29;;;;;;;6.55;3.15;;;8.50;40.60;;;;;;5035707;28;20166;-51
2023/01/11 02:01:55;;;;;;;5.78;3.08;;;8.40;40.30;;;;;;5034220;28;20205;-52
2023/01/11 02:04:40;;;;;;;6.18;3.75;;;8.40;40.60;;;;;;5035370;28;20177;-52
2023/01/11 02:07:10;;;;;;;6.50;3.17;;;8.40;40.40;;;;;;5035467;28;20724;-52
2023/01/11 02:09:55;;;;;;;3.53;2.80;;;8.40;40.40;;;;;;5035405;28;20618;-52
2023/01/11 02:12:23;;;;;;;5.82;3.63;;;8.50;40.50;;;;;;5035653;28;20186;-51
2023/01/11 02:14:51;;;;;;;9.48;3.92;;;8.40;40.90;;;;;;5035136;28;20533;-52
2023/01/11 02:17:17;;;;;;;8.32;4.03;;;8.50;40.30;;;;;;5035253;28;20677;-51
2023/01/11 02:19:48;;;;;;;8.90;3.40;;;8.40;40.30;;;;;;5035351;28;20212;-52
2023/01/11 02:22:38;;;;;;;6.13;3.10;;;8.50;40.30;;;;;;5035214;28;20201;-51
2023/01/11 02:25:26;;;;;;;6.32;3.95;;;8.50;40.20;;;;;;5034933;28;20170;-52
2023/01/11 02:28:10;;;;;;;7.68;4.22;;;8.50;40.00;;;;;;5034924;28;20222;-51
2023/01/11 02:30:45;;;;;;;5.85;3.45;;;8.50;40.30;;;;;;5035066;28;20181;-51
2023/01/11 02:33:14;;;;;;;4.45;3.35;;;8.50;40.30;;;;;;5035055;28;20173;-52
2023/01/11 02:36:01;;;;;;;4.15;3.63;;;8.50;40.10;;;;;;5034782;28;20166;-51
2023/01/11 02:38:54;;;;;;;11.40;3.92;;;8.40;39.90;;;;;;5034902;28;20243;-51
2023/01/11 02:45:00;;;;;;;4.57;2.78;;;8.50;40.20;;;;;;5034875;28;20244;-52
2023/01/11 02:47:07;;;;;;;9.77;4.47;;;8.40;39.80;;;;;;5035016;28;20561;-52
2023/01/11 02:49:50;;;;;;;6.07;2.95;;;8.50;40.20;;;;;;5034680;28;20231;-52
2023/01/11 02:52:33;;;;;;;8.82;4.80;;;8.50;39.90;;;;;;5034804;28;20669;-51
2023/01/11 02:55:02;;;;;;;4.43;3.63;;;8.60;39.80;;;;;;5034426;28;20181;-52
2023/01/11 02:57:29;;;;;;;4.72;3.70;;;8.60;39.80;;;;;;5034526;28;20195;-52
2023/01/11 02:59:56;;;;;;;8.90;4.03;;;8.60;39.70;;;;;;5034427;28;20257;-52
2023/01/11 03:02:23;;;;;;;5.68;3.75;;;8.60;39.70;;;;;;5034461;28;20198;-51
2023/01/11 03:04:48;;;;;;;4.05;2.95;;;8.60;39.60;;;;;;5034151;28;20220;-52
2023/01/11 03:07:35;;;;;;;6.20;4.03;;;8.60;39.90;;;;;;5034556;28;20240;-52
2023/01/11 03:10:43;;;;;;;16.98;4.20;;;8.60;39.80;;;;;;5034382;28;20166;-52
2023/01/11 03:13:30;;;;;;;7.60;3.85;;;8.60;39.90;;;;;;5040671;28;20204;-52
2023/01/11 03:16:14;;;;;;;8.88;4.25;;;8.60;40.00;;;;;;5034081;28;20220;-52
2023/01/11 03:19:23;;;;;;;7.25;4.05;;;8.60;40.00;;;;;;5034131;28;20235;-51
2023/01/11 03:22:01;;;;;;;9.32;3.88;;;8.70;40.20;;;;;;5034019;28;20181;-52
2023/01/11 03:24:42;;;;;;;5.13;3.50;;;8.60;40.00;;;;;;5034142;28;20185;-52
2023/01/11 03:27:19;;;;;;;6.70;3.75;;;8.60;40.00;;;;;;5033789;28;20201;-52
2023/01/11 03:29:51;;;;;;;7.80;4.05;;;8.60;40.20;;;;;;5034287;28;20245;-52
2023/01/11 03:32:37;;;;;;;6.65;4.45;;;8.70;40.10;;;;;;5033963;28;20150;-51
2023/01/11 03:35:05;;;;;;;6.57;4.82;;;8.70;40.20;;;;;;5033529;28;20190;-52
2023/01/11 03:37:46;;;;;;;5.75;3.03;;;8.70;40.20;;;;;;5033654;28;20212;-51
2023/01/11 03:40:32;;;;;;;7.47;4.05;;;8.70;40.00;;;;;;5034093;28;20200;-51
2023/01/11 03:43:10;;;;;;;8.50;3.85;;;8.70;40.00;;;;;;5033671;28;20227;-52
2023/01/11 03:46:17;;;;;;;7.35;3.42;;;8.80;40.20;;;;;;5033445;28;20162;-52
2023/01/11 03:48:54;;;;;;;5.13;3.63;;;8.70;40.10;;;;;;5041942;28;20871;-52
2023/01/11 03:51:26;;;;;;;7.25;4.00;;;8.70;40.50;;;;;;5033525;28;20640;-52
2023/01/11 03:53:56;;;;;;;6.65;4.35;;;8.80;40.40;;;;;;5033584;28;20164;-52
2023/01/11 03:56:28;;;;;;;6.95;2.90;;;8.80;40.30;;;;;;5033397;28;20181;-52
2023/01/11 03:58:54;;;;;;;6.53;3.70;;;8.90;40.20;;;;;;5033452;28;20541;-52
2023/01/11 04:01:20;;;;;;;5.30;3.30;;;8.90;40.10;;;;;;5032792;28;20626;-52
2023/01/11 04:03:46;;;;;;;8.90;3.83;;;8.90;40.30;;;;;;5033228;28;20201;-51
2023/01/11 04:06:11;;;;;;;6.50;3.03;;;8.80;40.10;;;;;;5033080;28;20180;-51
2023/01/11 04:08:37;;;;;;;6.27;3.03;;;8.80;40.10;;;;;;5033079;28;20573;-52
2023/01/11 04:11:03;;;;;;;6.87;3.47;;;8.90;40.20;;;;;;5033211;28;20404;-52
2023/01/11 04:13:29;;;;;;;8.52;3.22;;;8.80;40.10;;;;;;5033317;28;20176;-52
2023/01/11 04:15:55;;;;;;;8.00;3.73;;;8.80;39.90;;;;;;5032983;28;20589;-52
2023/01/11 04:18:21;;;;;;;4.07;3.00;;;8.90;40.10;;;;;;5032940;28;20434;-52
2023/01/11 04:20:47;;;;;;;8.20;3.10;;;8.90;40.20;;;;;;5032854;28;20230;-52
2023/01/11 04:23:13;;;;;;;7.00;3.33;;;8.90;40.20;;;;;;5032841;28;20201;-52
2023/01/11 04:25:39;;;;;;;8.18;4.50;;;8.90;40.90;;;;;;5031408;28;20173;-52
2023/01/11 04:28:05;;;;;;;8.33;3.33;;;8.90;40.00;;;;;;5032719;28;20236;-52
2023/01/11 04:30:31;;;;;;;5.23;2.90;;;8.90;39.90;;;;;;5033081;28;20453;-52
2023/01/11 04:32:58;;;;;;;11.23;3.67;;;8.90;40.00;;;;;;5032758;28;20657;-51
2023/01/11 04:35:24;;;;;;;5.45;4.05;;;9.00;40.20;;;;;;5032580;28;20189;-52
2023/01/11 04:37:56;;;;;;;12.27;3.58;;;9.00;40.10;;;;;;5032653;28;20217;-52
2023/01/11 04:40:22;;;;;;;9.73;3.58;;;9.10;40.10;;;;;;5032670;28;20158;-52
2023/01/11 04:42:48;;;;;;;5.15;3.30;;;9.10;40.10;;;;;;5032444;28;20208;-52
2023/01/11 04:45:14;;;;;;;4.40;3.27;;;9.10;39.90;;;;;;5032310;28;20258;-52
2023/01/11 04:47:40;;;;;;;5.63;3.30;;;9.10;39.80;;;;;;5032501;28;20416;-52
2023/01/11 04:50:07;;;;;;;8.20;3.13;;;9.20;39.80;;;;;;5032470;28;20413;-52
2023/01/11 04:52:33;;;;;;;4.40;2.70;;;9.20;39.70;;;;;;5032320;28;20181;-52
2023/01/11 04:54:58;;;;;;;4.00;2.70;;;9.20;39.50;;;;;;5032395;28;20187;-52
2023/01/11 04:57:24;;;;;;;3.20;2.37;;;9.10;39.80;;;;;;5032293;28;20932;-52
2023/01/11 04:59:50;;;;;;;12.10;2.80;;;9.30;39.90;;;;;;5032318;28;20184;-52
2023/01/11 05:02:16;;;;;;;6.23;3.30;;;9.20;39.60;;;;;;5032205;28;20352;-52
2023/01/11 05:04:42;;;;;;;8.18;3.15;;;9.30;39.70;;;;;;5032050;28;20401;-52
2023/01/11 05:07:09;;;;;;;3.15;2.85;;;9.30;39.40;;;;;;5032037;28;20662;-51
2023/01/11 05:09:35;;;;;;;5.78;2.90;;;9.30;39.40;;;;;;5032173;28;20534;-52
2023/01/11 05:12:01;;;;;;;3.90;2.45;;;9.40;39.50;;;;;;5031745;28;20196;-52
2023/01/11 05:14:27;;;;;;;6.50;3.58;;;9.50;39.60;;;;;;5031639;28;20201;-52
2023/01/11 05:16:53;;;;;;;4.20;2.90;;;9.50;39.40;;;;;;5032127;28;20679;-51
2023/01/11 05:19:18;;;;;;;6.37;2.50;;;9.50;39.40;;;;;;5032054;28;20665;-51
2023/01/11 05:21:44;;;;;;;5.73;2.70;;;9.50;39.40;;;;;;5031890;28;20568;-51
2023/01/11 05:24:13;;;;;;;4.70;3.00;;;9.50;39.30;;;;;;5031973;28;20170;-52
2023/01/11 05:26:42;;;;;;;5.07;2.67;;;9.40;39.20;;;;;;5031694;28;20213;-52
2023/01/11 05:29:15;;;;;;;4.50;3.28;;;9.40;39.40;;;;;;5032020;28;20154;-51
2023/01/11 05:31:41;;;;;;;4.70;2.70;;;9.50;39.40;;;;;;5032222;28;20165;-52
2023/01/11 05:34:08;;;;;;;4.03;2.50;;;9.40;39.40;;;;;;5030446;28;20188;-52
2023/01/11 05:36:35;;;;;;;8.57;3.25;;;9.50;39.60;;;;;;5031890;28;20224;-52
2023/01/11 05:39:01;;;;;;;6.82;3.00;;;9.60;39.60;;;;;;5031933;28;20549;-52
2023/01/11 05:41:27;;;;;;;9.32;3.92;;;9.60;39.40;;;;;;5031896;28;20238;-52
2023/01/11 05:46:39;;;;;;;4.07;2.65;;;9.60;39.40;;;;;;5031737;28;20192;-52
2023/01/11 05:49:06;;;;;;;4.57;2.78;;;9.50;39.40;;;;;;5031681;28;20185;-51
2023/01/11 05:51:33;;;;;;;4.30;2.55;;;9.50;39.50;;;;;;5032072;28;20239;-51
2023/01/11 05:54:00;;;;;;;5.57;2.55;;;9.60;39.60;;;;;;5031687;28;20174;-51
2023/01/11 05:56:26;;;;;;;7.93;2.92;;;9.70;39.70;;;;;;5031812;28;20301;-51
2023/01/11 05:58:52;;;;;;;6.80;3.25;;;9.70;39.70;;;;;;5031690;28;20174;-52
2023/01/11 06:01:19;;;;;;;3.63;2.33;;;9.70;39.50;;;;;;5031641;28;20529;-51
2023/01/11 06:03:45;;;;;;;5.05;3.38;;;9.70;39.60;;;;;;5031825;28;20197;-53
2023/01/11 06:06:13;;;;;;;3.22;2.60;;;9.70;39.70;;;;;;5031490;28;20173;-52
2023/01/11 06:08:39;;;;;;;13.02;2.92;;;9.60;39.50;;;;;;5031591;28;20247;-52
2023/01/11 06:11:04;;;;;;;4.53;3.20;;;9.70;39.80;;;;;;5031647;28;20206;-52
2023/01/11 06:13:32;;;;;;;7.90;3.00;;;9.60;39.70;;;;;;5031587;28;20173;-51
2023/01/11 06:16:04;;;;;;;4.05;2.70;;;9.70;39.80;;;;;;5031453;28;20423;-52
2023/01/11 06:18:35;;;;;;;3.10;2.80;;;9.70;40.00;;;;;;5031307;28;20216;-52
2023/01/11 06:21:01;;;;;;;5.78;3.20;;;9.70;39.90;;;;;;5031522;28;20208;-51
2023/01/11 06:23:29;;;;;;;6.25;3.00;;;9.70;40.00;;;;;;5031483;28;20202;-52
2023/01/11 06:25:55;;;;;;;5.63;3.13;;;9.70;39.90;;;;;;5034804;28;20178;-51
2023/01/11 06:28:21;;;;;;;6.43;3.70;;;9.80;39.90;;;;;;5034854;28;20715;-51
2023/01/11 06:30:54;;;;;;;3.77;2.63;;;9.70;39.80;;;;;;5035222;28;20405;-51
2023/01/11 06:33:20;;;;;;;9.10;3.17;;;9.80;39.80;;;;;;5034894;28;20919;-52
2023/01/11 06:35:46;;;;;;;4.10;3.03;;;9.80;40.00;;;;;;5034667;28;20216;-52
2023/01/11 06:38:14;;;;;;;8.03;2.40;;;9.90;39.90;;;;;;5035112;28;20221;-52
2023/01/11 06:40:40;;;;;;;10.45;3.70;;;9.90;40.00;;;;;;5034710;28;20216;-52
2023/01/11 06:43:08;;;;;;;7.72;3.30;;;9.90;40.00;;;;;;5034651;28;20600;-52
2023/01/11 06:45:34;;;;;;;5.80;3.28;;;9.90;39.70;;;;;;5034514;28;20192;-51
2023/01/11 06:48:00;;;;;;;3.72;2.67;;;9.90;39.80;;;;;;5034623;28;20688;-51
2023/01/11 06:50:26;;;;;;;7.45;2.75;;;9.90;39.70;;;;;;5034601;28;20642;-52
2023/01/11 06:52:57;;;;;;;8.18;3.88;;;9.90;39.80;;;;;;5034655;28;20193;-52
2023/01/11 06:55:26;;;;;;;6.15;3.38;;;9.90;39.90;;;;;;5034264;28;20170;-51
2023/01/11 06:57:52;;;;;;;4.03;3.15;;;9.90;40.20;;;;;;5034354;28;20285;-51
2023/01/11 07:00:18;;;;;;;7.35;3.17;;;10.00;39.80;;;;;;5034464;28;20166;-52
2023/01/11 07:02:45;;;;;;;5.47;4.05;;;10.00;39.70;;;;;;5034416;28;20197;-52
2023/01/11 07:05:11;;;;;;;5.50;3.70;;;9.90;39.60;;;;;;5034194;28;20567;-52
2023/01/11 07:07:38;;;;;;;10.88;3.97;;;9.90;39.80;;;;;;5034462;28;20548;-52
2023/01/11 07:10:10;;;;;;;6.20;3.90;;;10.00;39.70;;;;;;5034273;28;20212;-52
2023/01/11 07:12:36;;;;;;;11.15;4.60;;;10.00;39.70;;;;;;5034523;28;20209;-52
2023/01/11 07:15:03;;;;;;;7.65;4.40;;;10.00;39.60;;;;;;5033917;28;20170;-52
2023/01/11 07:17:29;;;;;;;5.15;3.33;;;10.00;39.60;;;;;;5034089;28;20589;-52
2023/01/11 07:19:55;;;;;;;6.00;3.47;;;10.00;39.40;;;;;;5034183;28;20172;-52
2023/01/11 07:22:24;;;;;;;8.30;4.47;;;10.00;39.50;;;;;;5034014;28;20550;-51
2023/01/11 07:24:50;;;;;;;6.63;3.08;;;10.00;39.50;;;;;;5034096;28;20181;-52
2023/01/11 07:27:18;;;;;;;7.10;3.72;;;10.00;39.50;;;;;;5033861;28;20224;-52
2023/01/11 07:29:44;;;;;;;10.10;4.43;;;10.00;39.50;;;;;;5034120;28;20185;-52
2023/01/11 07:32:10;;;;;;;5.30;3.90;;;9.90;39.70;;;;;;5033817;28;20541;-52
2023/01/11 07:34:36;;;;;;;7.03;3.90;;;9.90;39.90;;;;;;5033648;28;20448;-52
2023/01/11 07:37:02;;;;;;;6.25;4.03;;;10.00;39.80;;;;;;5032734;28;20185;-51
2023/01/11 07:39:28;;;;;;;6.60;3.65;;;9.90;40.00;;;;;;5033860;28;20225;-52
2023/01/11 07:44:38;;;;;;;14.02;5.25;;;10.00;39.90;;;;;;5033424;28;20576;-52
2023/01/11 07:47:03;;;;;;;4.50;3.20;;;9.90;40.00;;;;;;5033591;28;20190;-52
2023/01/11 07:49:30;;;;;;;5.20;3.70;;;10.00;39.90;;;;;;5033478;28;20170;-52
2023/01/11 07:51:56;;;;;;;9.88;3.50;;;10.10;40.10;;;;;;5033570;28;20164;-52
2023/01/11 07:54:23;;;;;;;7.73;4.00;;;10.00;40.00;;;;;;5033383;28;20534;-52
2023/01/11 07:56:49;;;;;;;6.90;3.78;;;10.10;40.30;;;;;;5033649;28;20193;-52
2023/01/11 07:59:15;;;;;;;7.40;3.65;;;10.20;40.10;;;;;;5033574;28;20185;-52
2023/01/11 08:01:41;;;;;;;6.32;3.65;;;10.20;40.10;;;;;;5033242;28;20653;-52
2023/01/11 08:04:10;;;;;;;7.47;3.17;;;10.30;40.10;;;;;;5033132;28;20206;-52
2023/01/11 08:06:39;;;;;;;7.75;3.50;;;10.30;40.10;;;;;;5033028;28;20205;-52
2023/01/11 08:09:05;;;;;;;4.40;3.10;;;10.40;40.00;;;;;;5033223;28;20227;-51
2023/01/11 08:17:00;;;;;;;4.60;3.40;;;10.70;39.90;;;;;;5033212;28;20259;-52
2023/01/11 08:19:25;;;;;;;9.17;3.70;;;10.80;39.80;;;;;;5032970;28;20372;-52
2023/01/11 08:21:51;;;;;;;7.60;3.67;;;10.90;39.80;;;;;;5032907;28;20181;-52
2023/01/11 08:24:17;;;;;;;4.73;3.47;;;10.90;39.70;;;;;;5033001;28;20265;-51
2023/01/11 08:26:43;;;;;;;3.80;2.63;;;10.90;39.60;;;;;;5032819;28;20292;-51
2023/01/11 08:29:09;;;;;;;3.40;3.10;;;11.00;39.70;;;;;;5032752;28;20401;-52
2023/01/11 08:31:34;;;;;;;6.82;3.83;;;11.00;39.80;;;;;;5032680;28;20180;-52
2023/01/11 08:34:00;;;;;;;8.43;3.20;;;10.90;39.80;;;;;;5032699;28;20174;-52
2023/01/11 08:36:26;;;;;;;8.97;3.20;;;10.90;39.90;;;;;;5032489;28;20247;-51
2023/01/11 08:38:58;;;;;;;8.40;2.67;;;10.90;39.80;;;;;;5032620;28;20527;-52
2023/01/11 08:41:24;;;;;;;6.18;3.22;;;10.90;39.80;;;;;;5032629;28;20905;-52
2023/01/11 08:43:50;;;;;;;5.40;3.72;;;10.80;39.70;;;;;;5032411;28;20214;-52
2023/01/11 08:46:17;;;;;;;3.50;2.78;;;10.80;39.90;;;;;;5032097;28;20174;-52
2023/01/11 08:48:43;;;;;;;3.78;2.63;;;10.80;39.90;;;;;;5032402;28;20201;-52
2023/01/11 08:51:09;;;;;;;4.22;3.15;;;10.80;40.20;;;;;;5032743;28;20170;-53
2023/01/11 08:53:35;;;;;;;4.97;2.85;;;10.70;40.20;;;;;;5032808;28;20604;-52
2023/01/11 08:56:01;;;;;;;5.65;2.47;;;10.70;40.40;;;;;;5032197;28;20527;-52
2023/01/11 08:58:27;;;;;;;8.17;3.40;;;10.80;40.40;;;;;;5032275;28;20201;-52
2023/01/11 09:00:55;;;;;;;4.73;3.13;;;10.80;40.40;;;;;;5032444;28;20178;-52
2023/01/11 09:03:21;;;;;;;5.32;3.35;;;10.90;40.50;;;;;;5032212;28;20536;-52
2023/01/11 09:05:47;;;;;;;3.87;3.47;;;10.90;40.60;;;;;;5032294;28;20253;-52
2023/01/11 09:08:13;;;;;;;9.30;3.90;;;11.00;40.50;;;;;;5032242;28;20467;-52
2023/01/11 09:10:38;;;;;;;6.10;3.20;;;11.10;40.50;;;;;;5032146;28;20170;-52
2023/01/11 09:13:04;;;;;;;4.57;2.87;;;11.20;40.30;;;;;;5032407;28;20247;-52
2023/01/11 09:15:30;;;;;;;4.97;3.30;;;11.20;40.20;;;;;;5031906;28;20576;-51
2023/01/11 09:17:56;;;;;;;9.67;3.50;;;11.30;40.00;;;;;;5032013;28;20201;-52
2023/01/11 09:20:21;;;;;;;5.67;3.70;;;11.30;40.00;;;;;;5032142;28;20181;-52
2023/01/11 09:22:49;;;;;;;7.93;3.67;;;11.30;39.90;;;;;;5032023;28;20189;-52
2023/01/11 09:25:15;;;;;;;7.93;4.85;;;11.30;40.00;;;;;;5031817;28;20250;-52
2023/01/11 09:27:49;;;;;;;4.80;3.83;;;11.30;39.90;;;;;;5031767;28;20580;-53
2023/01/11 09:30:21;;;;;;;4.05;3.28;;;11.20;40.10;;;;;;5031975;28;20162;-51
2023/01/11 09:32:48;;;;;;;5.07;4.18;;;11.30;40.20;;;;;;5031948;28;20170;-52
2023/01/11 09:35:15;;;;;;;7.68;5.13;;;11.30;40.10;;;;;;5032020;28;20573;-52
2023/01/11 09:37:47;;;;;;;4.90;3.28;;;11.30;40.20;;;;;;5032041;28;20259;-52
2023/01/11 09:40:22;;;;;;;6.03;4.30;;;11.30;40.20;;;;;;5031928;28;20530;-52
2023/01/11 09:42:59;;;;;;;6.43;4.07;;;11.40;39.90;;;;;;5031792;28;20189;-52
2023/01/11 09:45:29;;;;;;;5.38;2.97;;;11.40;39.90;;;;;;5031876;28;20499;-52
2023/01/11 09:48:10;;;;;;;4.60;3.03;;;11.40;40.20;;;;;;5031762;28;20288;-52
2023/01/11 09:50:42;;;;;;;6.03;3.30;;;11.40;39.90;;;;;;5031696;28;20158;-52
2023/01/11 09:53:26;;;;;;;4.00;3.13;;;11.40;39.90;;;;;;5032068;28;20530;-52
2023/01/11 09:55:56;;;;;;;6.45;2.67;;;11.40;40.10;;;;;;5031690;28;20174;-52
2023/01/11 09:58:41;;;;;;;4.68;3.05;;;11.40;40.20;;;;;;5031975;28;20198;-52
2023/01/11 10:01:44;;;;;;;4.30;3.53;;;11.50;40.30;;;;;;5035863;28;20182;-52
2023/01/11 10:04:21;;;;;;;4.57;2.95;;;11.50;40.00;;;;;;5035702;28;20292;-52
2023/01/11 10:07:11;;;;;;;5.55;3.72;;;11.40;40.30;;;;;;5035482;28;20236;-52
2023/01/11 10:10:07;;;;;;;7.13;3.45;;;11.40;40.50;;;;;;5035417;28;20184;-52
2023/01/11 10:12:44;;;;;;;5.28;3.88;;;11.40;40.40;;;;;;5035363;28;20267;-52
2023/01/11 10:16:08;;;;;;;5.03;3.25;;;11.30;40.70;;;;;;5035063;28;20296;-52
2023/01/11 10:18:53;;;;;;;5.28;2.95;;;11.30;40.70;;;;;;5026262;28;20202;-52
2023/01/11 10:21:34;;;;;;;6.43;3.80;;;11.40;40.90;;;;;;5035253;28;20281;-52
2023/01/11 10:24:11;;;;;;;4.88;3.20;;;11.40;40.80;;;;;;5035282;28;20301;-52
2023/01/11 10:26:40;;;;;;;5.55;3.85;;;11.40;40.70;;;;;;5034976;28;20542;-52
2023/01/11 10:34:41;;;;;;;6.80;4.30;;;11.50;41.20;;;;;;5034826;28;20159;-52
2023/01/11 10:40:25;;;;;;;4.30;3.40;;;11.50;41.00;;;;;;5035032;28;20634;-52
2023/01/11 10:43:11;;;;;;;3.47;2.90;;;11.50;41.20;;;;;;5034949;28;20231;-52
2023/01/11 10:46:11;;;;;;;3.60;2.85;;;11.50;41.10;;;;;;5034580;28;20158;-52
2023/01/11 10:48:38;;;;;;;5.03;3.45;;;11.50;40.90;;;;;;5034854;28;20209;-52
2023/01/11 10:51:36;;;;;;;4.05;2.92;;;11.50;41.30;;;;;;5034754;28;20173;-52
2023/01/11 10:54:16;;;;;;;5.00;3.58;;;11.50;41.30;;;;;;5034612;28;20638;-52
2023/01/11 10:56:51;;;;;;;3.83;2.88;;;11.40;41.30;;;;;;5034646;28;20206;-52
2023/01/11 10:59:45;;;;;;;5.20;2.92;;;11.50;41.40;;;;;;5034554;28;20177;-52
2023/01/11 11:02:36;;;;;;;4.30;2.97;;;11.50;41.40;;;;;;5034441;28;20178;-52
2023/01/11 11:05:18;;;;;;;5.05;3.05;;;11.60;41.10;;;;;;5034259;28;20174;-52
2023/01/11 11:07:55;;;;;;;4.20;2.70;;;11.70;41.20;;;;;;5034444;28;20194;-52
2023/01/11 11:10:52;;;;;;;3.13;2.70;;;11.70;41.20;;;;;;5034330;28;20166;-52
2023/01/11 11:13:36;;;;;;;3.10;2.45;;;11.80;41.00;;;;;;5034327;28;20177;-52
2023/01/11 11:16:22;;;;;;;3.53;3.00;;;11.70;41.00;;;;;;5034088;28;20257;-52
2023/01/11 11:18:54;;;;;;;11.50;4.00;;;11.70;40.90;;;;;;5034315;28;20177;-52
2023/01/11 11:21:29;;;;;;;3.90;3.10;;;11.80;41.40;;;;;;5034175;28;20182;-52
2023/01/11 11:24:00;;;;;;;3.63;3.17;;;11.80;41.40;;;;;;5033997;28;20185;-52
2023/01/11 11:26:36;;;;;;;5.00;2.78;;;11.80;41.50;;;;;;5033743;28;20261;-52
2023/01/11 11:29:10;;;;;;;4.65;2.78;;;11.80;41.40;;;;;;5034279;28;20201;-52
2023/01/11 11:31:40;;;;;;;4.25;3.05;;;11.80;41.60;;;;;;5033929;28;20166;-52
2023/01/11 11:34:13;;;;;;;3.58;2.95;;;11.80;41.20;;;;;;5033965;28;20174;-52
2023/01/11 11:36:44;;;;;;;4.28;2.70;;;11.70;41.70;;;;;;5033580;28;20194;-52
2023/01/11 11:39:17;;;;;;;5.18;3.47;;;11.60;41.70;;;;;;5034031;28;20224;-52
2023/01/11 11:42:03;;;;;;;3.60;3.10;;;11.60;41.80;;;;;;5033850;28;20185;-52
2023/01/11 11:44:29;;;;;;;4.38;2.90;;;11.60;42.00;;;;;;5033498;28;20568;-52
2023/01/11 11:47:21;;;;;;;5.20;3.50;;;11.70;42.00;;;;;;5033529;28;20229;-52
2023/01/11 11:49:47;;;;;;;5.13;4.22;;;11.70;42.00;;;;;;5032223;28;20424;-52
2023/01/11 11:52:16;;;;;;;4.53;3.50;;;11.70;42.00;;;;;;5033849;28;20177;-52
2023/01/11 11:54:56;;;;;;;3.75;3.40;;;11.70;42.00;;;;;;5033364;28;20170;-53
2023/01/11 11:57:28;;;;;;;3.90;3.60;;;11.80;41.90;;;;;;5033682;28;20198;-52
2023/01/11 12:00:21;;;;;;;3.72;3.30;;;11.90;41.80;;;;;;5033343;28;20173;-52
2023/01/11 12:03:00;;;;;;;5.05;3.58;;;11.80;41.70;;;;;;5033248;28;20190;-53
2023/01/11 12:05:26;;;;;;;4.95;4.35;;;11.80;41.80;;;;;;5032950;28;20641;-53
2023/01/11 12:07:53;;;;;;;5.90;3.53;;;11.70;42.10;;;;;;5033353;28;20202;-53
2023/01/11 12:10:24;;;;;;;4.60;3.80;;;11.80;42.10;;;;;;5033146;28;20174;-52
2023/01/11 12:13:01;;;;;;;3.78;3.17;;;11.90;41.90;;;;;;5033111;28;20639;-52
2023/01/11 12:15:32;;;;;;;4.68;4.10;;;12.00;41.70;;;;;;5032888;28;20565;-53
2023/01/11 12:18:36;;;;;;;4.80;4.05;;;12.00;41.90;;;;;;5032905;28;20193;-53
2023/01/11 12:21:23;;;;;;;5.25;4.55;;;11.90;41.80;;;;;;5033479;28;20709;-52
2023/01/11 12:24:16;;;;;;;5.30;4.15;;;12.00;41.80;;;;;;5032830;28;20201;-53
2023/01/11 12:27:02;;;;;;;4.38;3.72;;;12.00;42.00;;;;;;5033995;28;20283;-53
2023/01/11 12:29:45;;;;;;;4.55;4.15;;;12.00;41.90;;;;;;5032856;28;20166;-52
2023/01/11 12:32:37;;;;;;;4.60;3.60;;;12.10;42.10;;;;;;5033106;28;20537;-53
2023/01/11 12:35:21;;;;;;;5.28;3.75;;;12.20;41.70;;;;;;5032436;28;20181;-52
2023/01/11 12:37:52;;;;;;;4.75;4.25;;;12.30;41.60;;;;;;5032864;28;20209;-53
2023/01/11 12:40:30;;;;;;;5.18;4.03;;;12.30;41.50;;;;;;5032624;28;20176;-53
2023/01/11 12:43:34;;;;;;;5.15;4.25;;;12.40;41.50;;;;;;5032471;28;20200;-52
2023/01/11 12:46:17;;;;;;;5.43;3.90;;;12.40;41.20;;;;;;5032555;28;20264;-52
2023/01/11 12:49:08;;;;;;;4.97;3.90;;;12.40;41.30;;;;;;5032489;28;20577;-53
2023/01/11 12:51:39;;;;;;;4.50;3.88;;;12.40;41.30;;;;;;5032430;28;20564;-52
2023/01/11 12:54:35;;;;;;;5.65;3.85;;;12.50;41.40;;;;;;5032455;28;20515;-53
2023/01/11 12:57:24;;;;;;;6.22;4.57;;;12.50;41.20;;;;;;5032445;28;20197;-53
2023/01/11 13:00:16;;;;;;;6.07;3.92;;;12.60;41.00;;;;;;5032329;28;20192;-53
2023/01/11 13:03:05;;;;;;;5.72;4.10;;;12.50;40.90;;;;;;5032498;28;20190;-52
2023/01/11 13:05:45;;;;;;;5.20;3.90;;;12.50;41.10;;;;;;5034737;28;20637;-52
2023/01/11 13:08:19;;;;;;;4.18;3.63;;;12.50;41.20;;;;;;5032116;28;20197;-52
2023/01/11 13:10:53;;;;;;;8.25;4.50;;;12.50;41.30;;;;;;5032180;28;20649;-53
2023/01/11 13:13:25;;;;;;;4.43;3.58;;;12.50;41.30;;;;;;5032169;28;20291;-53
2023/01/11 13:16:05;;;;;;;4.45;3.70;;;12.50;41.20;;;;;;5032176;28;20170;-53
2023/01/11 13:18:57;;;;;;;6.20;4.25;;;12.50;41.20;;;;;;5032025;28;20197;-52
2023/01/11 13:21:39;;;;;;;9.20;5.47;;;12.60;41.20;;;;;;5032318;28;20167;-53
2023/01/11 13:24:13;;;;;;;6.70;3.80;;;12.60;41.20;;;;;;5031784;28;20693;-52
2023/01/11 13:26:42;;;;;;;4.20;3.80;;;12.60;41.20;;;;;;5031478;28;20217;-53
2023/01/11 13:29:45;;;;;;;6.63;4.32;;;12.60;41.10;;;;;;5032049;28;20166;-53
2023/01/11 13:32:15;;;;;;;5.90;4.75;;;12.60;41.30;;;;;;5032150;28;20258;-53
2023/01/11 13:34:47;;;;;;;5.45;4.47;;;12.60;41.50;;;;;;5034135;28;20162;-52
2023/01/11 13:37:33;;;;;;;3.85;3.50;;;12.60;41.80;;;;;;5036012;28;20197;-53
2023/01/11 13:40:28;;;;;;;7.05;4.75;;;12.70;41.90;;;;;;5036163;28;20207;-53
2023/01/11 13:43:02;;;;;;;6.10;4.10;;;12.70;42.10;;;;;;5035878;28;20243;-53
2023/01/11 13:45:47;;;;;;;4.55;3.83;;;12.80;42.20;;;;;;5035778;28;20610;-53
2023/01/11 13:48:34;;;;;;;5.32;4.35;;;12.70;42.40;;;;;;5036069;28;20252;-53
2023/01/11 13:51:22;;;;;;;4.95;3.90;;;12.60;42.80;;;;;;5035829;28;20150;-53